Time;durP1;ratioP1;P1;durP2;ratioP2;P2;SDS_P1;SDS_P2;PMS_P1;PMS_P2;Temp;Humidity;BMP_temperature;BMP_pressure;BME280_temperature;BME280_humidity;BME280_pressure;Samples;Min_cycle;Max_cycle;Signal;HPM_P1;HPM_P2
2023/02/04 00:01:44;;;;;;;2.67;1.90;;;-0.30;99.90;;;;;;5053981;28;20230;-84
2023/02/04 00:04:12;;;;;;;4.40;3.13;;;-0.40;99.90;;;;;;5053602;28;20250;-85
2023/02/04 00:06:37;;;;;;;3.63;3.20;;;-0.10;99.90;;;;;;5053142;28;20180;-85
2023/02/04 00:09:03;;;;;;;3.70;3.40;;;-0.30;99.90;;;;;;5053272;28;20218;-84
2023/02/04 00:11:31;;;;;;;3.63;3.13;;;-0.40;99.90;;;;;;5035190;28;20184;-84
2023/02/04 00:13:56;;;;;;;6.07;2.83;;;-0.30;99.90;;;;;;5053330;28;20209;-84
2023/02/04 00:16:22;;;;;;;7.83;3.33;;;-0.30;99.90;;;;;;5052713;28;20644;-85
2023/02/04 00:18:48;;;;;;;8.67;3.47;;;-0.40;99.90;;;;;;5035507;28;20183;-84
2023/02/04 00:21:13;;;;;;;4.13;3.40;;;-0.40;99.90;;;;;;5034940;28;20754;-87
2023/02/04 00:23:39;;;;;;;11.60;4.93;;;-0.40;99.90;;;;;;5018958;28;20633;-84
2023/02/04 00:26:05;;;;;;;17.73;3.87;;;-0.40;99.90;;;;;;5053111;28;20179;-84
2023/02/04 00:28:31;;;;;;;16.30;6.70;;;-0.40;99.90;;;;;;5035410;28;20180;-84
2023/02/04 00:30:56;;;;;;;23.30;7.43;;;-0.40;99.90;;;;;;5018451;28;20188;-84
2023/02/04 00:33:22;;;;;;;9.53;4.70;;;-0.40;99.90;;;;;;5052402;28;20218;-85
2023/02/04 00:35:48;;;;;;;10.27;4.83;;;-0.40;99.90;;;;;;5034944;28;20232;-84
2023/02/04 00:38:13;;;;;;;27.57;5.23;;;-0.40;99.90;;;;;;5035336;28;20183;-85
2023/02/04 00:40:39;;;;;;;6.87;3.47;;;-0.40;99.90;;;;;;5052695;28;20184;-85
2023/02/04 00:43:05;;;;;;;2.77;2.53;;;-0.40;99.90;;;;;;5034874;28;20183;-84
2023/02/04 00:45:30;;;;;;;8.47;5.07;;;-0.40;99.90;;;;;;5034820;28;20183;-85
2023/02/04 00:47:56;;;;;;;6.00;2.97;;;-0.10;99.90;;;;;;5052971;28;20205;-84
2023/02/04 00:50:23;;;;;;;13.60;4.47;;;-0.50;99.90;;;;;;5034630;28;20240;-85
2023/02/04 00:52:48;;;;;;;4.00;3.60;;;-0.50;99.90;;;;;;5052889;28;20208;-84
2023/02/04 00:55:15;;;;;;;4.37;3.17;;;-0.50;99.90;;;;;;5018678;28;20195;-84
2023/02/04 00:57:42;;;;;;;3.87;3.47;;;-0.40;99.90;;;;;;5034704;28;20625;-84
2023/02/04 01:00:08;;;;;;;4.80;2.87;;;-0.50;99.90;;;;;;5018379;28;20196;-84
2023/02/04 01:02:34;;;;;;;4.33;2.83;;;-0.50;99.90;;;;;;5034276;28;20230;-84
2023/02/04 01:04:59;;;;;;;7.17;3.97;;;-0.50;99.90;;;;;;5056310;28;20631;-84
2023/02/04 01:07:25;;;;;;;17.93;4.83;;;-0.60;99.90;;;;;;5038724;28;20744;-84
2023/02/04 01:09:51;;;;;;;4.40;2.57;;;-0.60;99.90;;;;;;5056762;28;20644;-84
2023/02/04 01:12:16;;;;;;;9.50;4.60;;;-0.60;99.90;;;;;;5038810;28;20633;-84
2023/02/04 01:14:42;;;;;;;21.70;4.23;;;-0.10;99.90;;;;;;5038247;28;20629;-84
2023/02/04 01:17:08;;;;;;;6.63;4.37;;;-0.20;99.90;;;;;;5038803;28;20633;-83
2023/02/04 01:19:33;;;;;;;8.43;5.43;;;-0.60;99.90;;;;;;5021548;28;20583;-83
2023/02/04 01:21:59;;;;;;;15.37;7.30;;;-0.70;99.90;;;;;;5038739;28;20226;-83
2023/02/04 01:24:25;;;;;;;13.80;8.17;;;-0.30;99.90;;;;;;5038396;28;20188;-84
2023/02/04 01:26:50;;;;;;;14.03;4.87;;;-0.60;99.90;;;;;;5038589;28;20187;-84
2023/02/04 01:29:16;;;;;;;10.27;4.97;;;-0.60;99.90;;;;;;5056603;28;20186;-83
2023/02/04 01:31:42;;;;;;;3.70;2.70;;;-0.70;99.90;;;;;;5038105;28;20684;-84
2023/02/04 01:34:07;;;;;;;6.97;3.73;;;-0.60;99.90;;;;;;5021858;28;20623;-84
2023/02/04 01:36:33;;;;;;;4.83;3.27;;;-0.70;99.90;;;;;;5038228;28;20191;-84
2023/02/04 01:38:59;;;;;;;3.93;3.17;;;-0.20;99.90;;;;;;5021754;28;20274;-83
2023/02/04 01:41:26;;;;;;;4.67;4.07;;;-0.40;99.90;;;;;;5037947;28;20185;-84
2023/02/04 01:43:52;;;;;;;4.63;3.80;;;-0.80;99.90;;;;;;5021816;28;20196;-84
2023/02/04 01:46:18;;;;;;;7.20;4.83;;;-0.80;99.90;;;;;;5037948;28;20184;-84
2023/02/04 01:48:44;;;;;;;7.30;3.17;;;-0.70;99.90;;;;;;5055695;28;20180;-83
2023/02/04 01:51:15;;;;;;;7.83;5.13;;;-0.80;99.90;;;;;;5038272;28;20188;-84
2023/02/04 01:53:42;;;;;;;8.43;4.47;;;-0.80;99.90;;;;;;5037699;28;20210;-84
2023/02/04 01:56:16;;;;;;;9.70;4.50;;;-0.80;99.90;;;;;;5055898;28;20188;-84
2023/02/04 01:58:42;;;;;;;15.90;5.20;;;-0.80;99.90;;;;;;5037828;28;20186;-84
2023/02/04 02:01:32;;;;;;;7.87;4.03;;;-0.60;99.90;;;;;;5038080;28;20190;-83
2023/02/04 02:03:58;;;;;;;8.43;3.33;;;-0.80;99.90;;;;;;5056182;28;20175;-83
2023/02/04 02:06:24;;;;;;;11.30;5.37;;;-0.90;99.90;;;;;;5038122;28;20267;-83
2023/02/04 02:08:50;;;;;;;2.50;2.30;;;-0.90;99.90;;;;;;5037686;28;20266;-83
2023/02/04 02:11:16;;;;;;;20.70;3.93;;;-0.90;99.90;;;;;;5037557;28;20180;-83
2023/02/04 02:13:41;;;;;;;4.80;2.60;;;-0.90;99.90;;;;;;5020904;28;20699;-83
2023/02/04 02:16:07;;;;;;;5.00;3.80;;;-1.00;99.90;;;;;;5036326;28;20182;-83
2023/02/04 02:18:33;;;;;;;4.80;2.73;;;-1.00;99.90;;;;;;5055180;28;20644;-83
2023/02/04 02:21:03;;;;;;;4.10;3.63;;;-1.00;99.90;;;;;;5037147;28;20601;-84
2023/02/04 02:23:52;;;;;;;3.90;3.50;;;-0.90;99.90;;;;;;5055089;28;20190;-85
2023/02/04 02:26:19;;;;;;;4.73;4.07;;;-1.00;99.90;;;;;;5055112;28;20271;-83
2023/02/04 02:28:46;;;;;;;4.57;4.17;;;-0.90;99.90;;;;;;5054668;28;20199;-84
2023/02/04 02:31:13;;;;;;;2.67;2.47;;;-0.90;99.90;;;;;;5037563;28;20180;-83
2023/02/04 02:33:40;;;;;;;8.80;3.80;;;-1.00;99.90;;;;;;5036984;28;20212;-83
2023/02/04 02:36:06;;;;;;;3.47;3.27;;;-1.10;99.90;;;;;;5055044;28;20183;-83
2023/02/04 02:38:31;;;;;;;4.30;2.00;;;-1.10;99.90;;;;;;5037189;28;20190;-85
2023/02/04 02:40:58;;;;;;;3.37;2.60;;;-0.80;99.90;;;;;;5055358;28;20180;-83
2023/02/04 02:43:27;;;;;;;2.63;2.23;;;-1.10;99.90;;;;;;5054589;28;20544;-84
2023/02/04 02:45:53;;;;;;;8.17;2.73;;;-1.10;99.90;;;;;;5036644;28;20180;-83
2023/02/04 02:48:19;;;;;;;3.53;3.23;;;-1.10;99.90;;;;;;5037315;28;20190;-83
2023/02/04 02:50:46;;;;;;;4.93;2.60;;;-1.10;99.90;;;;;;5054608;28;20658;-84
2023/02/04 02:53:14;;;;;;;5.20;3.23;;;-1.20;99.90;;;;;;5036987;28;20207;-83
2023/02/04 02:55:41;;;;;;;6.53;3.87;;;-1.20;99.90;;;;;;5036564;28;20193;-84
2023/02/04 02:58:15;;;;;;;2.13;2.03;;;-1.20;99.90;;;;;;5020012;28;20246;-83
2023/02/04 03:00:41;;;;;;;3.70;3.07;;;-1.20;99.90;;;;;;5054467;28;20168;-83
2023/02/04 03:03:11;;;;;;;9.90;4.57;;;-1.30;99.90;;;;;;5036638;28;20184;-83
2023/02/04 03:05:42;;;;;;;7.00;3.47;;;-0.60;99.90;;;;;;5036386;28;20183;-83
2023/02/04 03:08:09;;;;;;;4.30;2.27;;;-1.10;99.90;;;;;;5036889;28;20563;-83
2023/02/04 03:10:35;;;;;;;1.77;1.67;;;-1.10;99.90;;;;;;5036287;28;20184;-85
2023/02/04 03:13:02;;;;;;;2.57;2.40;;;-1.30;99.90;;;;;;5054352;28;20226;-83
2023/02/04 03:15:27;;;;;;;2.03;1.87;;;-1.20;99.90;;;;;;5036475;28;20619;-83
2023/02/04 03:17:55;;;;;;;2.97;2.70;;;-1.30;99.90;;;;;;5036260;28;20282;-83
2023/02/04 03:20:24;;;;;;;3.10;1.97;;;-1.30;99.90;;;;;;5036168;28;20227;-83
2023/02/04 03:22:50;;;;;;;1.67;1.57;;;-1.30;99.90;;;;;;5035985;28;20179;-83
2023/02/04 03:25:16;;;;;;;1.40;1.40;;;-1.30;99.90;;;;;;5036538;28;20178;-83
2023/02/04 03:27:42;;;;;;;2.43;2.23;;;-1.40;99.90;;;;;;5035576;28;20195;-83
2023/02/04 03:30:08;;;;;;;1.70;1.63;;;-1.30;99.90;;;;;;5036266;28;20192;-83
2023/02/04 03:32:34;;;;;;;2.17;1.33;;;-1.30;99.90;;;;;;5036063;28;20753;-83
2023/02/04 03:35:00;;;;;;;2.03;1.60;;;-1.20;99.90;;;;;;5035785;28;20191;-83
2023/02/04 03:37:26;;;;;;;1.37;1.30;;;-1.30;99.90;;;;;;4997278;28;20219;-83
2023/02/04 03:39:51;;;;;;;2.13;2.03;;;-1.30;99.90;;;;;;5012418;28;20195;-83
2023/02/04 03:42:17;;;;;;;2.13;2.03;;;-1.40;99.90;;;;;;5016497;28;20184;-83
2023/02/04 03:44:43;;;;;;;2.23;2.07;;;-1.20;99.90;;;;;;4999065;28;20194;-84
2023/02/04 03:47:09;;;;;;;1.77;1.67;;;-0.30;99.90;;;;;;4998814;28;20653;-83
2023/02/04 03:49:35;;;;;;;1.57;1.47;;;-1.40;99.90;;;;;;5015486;28;20266;-83
2023/02/04 03:52:03;;;;;;;1.20;1.20;;;-1.40;99.90;;;;;;5016144;28;20195;-83
2023/02/04 03:54:30;;;;;;;2.40;1.80;;;-1.50;99.90;;;;;;5032995;28;20250;-85
2023/02/04 03:56:56;;;;;;;2.43;2.23;;;-1.30;99.90;;;;;;5033823;28;20192;-85
2023/02/04 03:59:21;;;;;;;1.13;1.13;;;-1.40;99.90;;;;;;5015685;28;20194;-84
2023/02/04 04:01:47;;;;;;;1.27;1.27;;;-1.40;99.90;;;;;;4999716;28;20185;-84
2023/02/04 04:04:13;;;;;;;2.73;2.53;;;-1.50;99.90;;;;;;4999475;28;20199;-84
2023/02/04 04:06:38;;;;;;;4.33;1.70;;;-0.50;99.90;;;;;;5033652;28;20189;-84
2023/02/04 04:09:04;;;;;;;1.43;1.43;;;-0.90;99.90;;;;;;5015540;28;20177;-84
2023/02/04 04:11:30;;;;;;;3.70;1.77;;;-1.50;99.90;;;;;;5015751;28;20545;-83
2023/02/04 04:13:56;;;;;;;2.20;2.00;;;-1.50;99.90;;;;;;5032779;28;20196;-84
2023/02/04 04:16:21;;;;;;;2.03;1.80;;;-1.50;99.90;;;;;;5016058;28;20184;-85
2023/02/04 04:18:47;;;;;;;1.97;1.73;;;-1.40;99.90;;;;;;5015256;28;20184;-84
2023/02/04 04:21:13;;;;;;;1.90;1.80;;;-0.60;99.90;;;;;;4995952;28;20236;-85
2023/02/04 04:23:38;;;;;;;1.77;1.67;;;-1.10;99.90;;;;;;4988352;28;20219;-84
2023/02/04 04:26:04;;;;;;;1.63;1.60;;;-1.60;99.90;;;;;;5023054;28;20199;-84
2023/02/04 04:28:30;;;;;;;1.90;1.80;;;-1.50;99.90;;;;;;4985403;28;20184;-85
2023/02/04 04:30:55;;;;;;;1.87;1.77;;;-0.40;99.90;;;;;;5015447;28;20644;-85
2023/02/04 04:33:21;;;;;;;1.67;1.63;;;-1.60;99.90;;;;;;4989111;28;20212;-84
2023/02/04 04:35:47;;;;;;;1.30;1.30;;;-1.30;99.90;;;;;;5024602;28;20196;-85
2023/02/04 04:38:12;;;;;;;2.07;1.97;;;-0.80;99.90;;;;;;5000162;28;20191;-85
2023/02/04 04:40:38;;;;;;;1.60;1.50;;;-1.60;99.90;;;;;;4998646;28;20202;-86
2023/02/04 04:43:04;;;;;;;1.77;1.40;;;-1.60;99.90;;;;;;5013209;28;20199;-85
2023/02/04 04:45:29;;;;;;;2.93;2.17;;;-1.00;99.90;;;;;;5010567;28;20626;-84
2023/02/04 04:47:55;;;;;;;1.50;1.40;;;-1.60;99.90;;;;;;5029009;28;20275;-85
2023/02/04 04:50:21;;;;;;;2.30;2.03;;;-1.40;99.90;;;;;;5004310;28;20612;-85
2023/02/04 04:52:47;;;;;;;3.87;2.57;;;-1.30;99.90;;;;;;5020748;28;20219;-85
2023/02/04 04:55:13;;;;;;;1.20;1.20;;;-1.60;99.90;;;;;;5020492;28;20199;-85
2023/02/04 04:57:38;;;;;;;1.53;1.43;;;-1.70;99.90;;;;;;5001022;28;20641;-85
2023/02/04 05:00:06;;;;;;;1.90;1.80;;;-1.70;99.90;;;;;;5033674;28;20179;-86
2023/02/04 05:02:32;;;;;;;1.67;1.57;;;-1.60;99.90;;;;;;5023727;28;20316;-84
2023/02/04 05:04:57;;;;;;;2.03;1.60;;;-1.60;99.90;;;;;;5005751;28;20694;-84
2023/02/04 05:07:23;;;;;;;2.87;1.97;;;-1.60;99.90;;;;;;5021377;28;20274;-84
2023/02/04 05:09:49;;;;;;;1.63;1.53;;;-1.20;99.90;;;;;;5050017;28;20626;-85
2023/02/04 05:12:15;;;;;;;1.27;1.13;;;-1.40;99.90;;;;;;5031979;28;20610;-84
2023/02/04 05:14:40;;;;;;;2.57;1.40;;;-1.60;99.90;;;;;;4998404;28;20671;-84
2023/02/04 05:17:06;;;;;;;2.87;1.80;;;-1.60;99.90;;;;;;5022546;28;20657;-84
2023/02/04 05:19:32;;;;;;;2.63;2.10;;;-1.60;99.90;;;;;;5042350;28;20643;-85
2023/02/04 05:22:00;;;;;;;1.97;1.87;;;-1.40;99.90;;;;;;5006550;28;20188;-84
2023/02/04 05:24:26;;;;;;;1.50;1.40;;;-1.70;99.90;;;;;;5028029;28;20531;-84
2023/02/04 05:26:52;;;;;;;3.90;2.37;;;-1.70;99.90;;;;;;5032335;28;20302;-84
2023/02/04 05:29:17;;;;;;;1.87;1.77;;;-1.70;99.90;;;;;;5031885;28;20178;-84
2023/02/04 05:31:43;;;;;;;4.23;2.63;;;-1.00;99.90;;;;;;5030862;28;20633;-83
2023/02/04 05:34:09;;;;;;;1.33;1.27;;;-0.70;99.90;;;;;;5028658;28;21029;-85
2023/02/04 05:36:35;;;;;;;2.27;2.07;;;-1.80;99.90;;;;;;5017726;28;20584;-85
2023/02/04 05:39:00;;;;;;;1.97;1.47;;;-1.80;99.90;;;;;;4987993;28;20204;-87
2023/02/04 05:41:26;;;;;;;1.80;1.70;;;-1.80;99.90;;;;;;5024381;28;20675;-85
2023/02/04 05:43:52;;;;;;;1.43;1.33;;;-1.30;99.90;;;;;;5013907;28;20187;-85
2023/02/04 05:46:18;;;;;;;1.90;1.80;;;-1.80;99.90;;;;;;5012561;28;20195;-85
2023/02/04 05:48:43;;;;;;;1.80;1.70;;;-1.80;99.90;;;;;;5010577;28;20193;-87
2023/02/04 05:51:09;;;;;;;2.13;2.03;;;-1.80;99.90;;;;;;5012027;28;20191;-84
2023/02/04 05:53:35;;;;;;;1.97;1.87;;;-2.10;99.90;;;;;;5033737;28;20219;-85
2023/02/04 05:56:01;;;;;;;2.50;2.33;;;-1.30;99.90;;;;;;4994152;28;20663;-85
2023/02/04 05:58:32;;;;;;;1.63;1.53;;;-1.90;99.90;;;;;;5009868;28;20633;-85
2023/02/04 06:00:59;;;;;;;8.03;2.53;;;-1.90;99.90;;;;;;4998964;28;20641;-86
2023/02/04 06:03:24;;;;;;;2.30;1.67;;;-1.90;99.90;;;;;;5014849;28;20606;-85
2023/02/04 06:05:50;;;;;;;1.43;1.37;;;-1.90;99.90;;;;;;4993533;28;20196;-86
2023/02/04 06:08:16;;;;;;;4.10;2.53;;;-1.70;99.90;;;;;;5011446;28;20279;-86
2023/02/04 06:10:41;;;;;;;2.03;1.93;;;-1.70;99.90;;;;;;5016018;28;20189;-86
2023/02/04 06:13:07;;;;;;;6.27;3.50;;;-1.50;99.90;;;;;;5015639;28;20613;-83
2023/02/04 06:15:33;;;;;;;2.23;1.77;;;-1.00;99.90;;;;;;4983175;28;20187;-83
2023/02/04 06:17:58;;;;;;;4.37;2.27;;;-2.00;99.90;;;;;;5014950;28;20195;-85
2023/02/04 06:20:24;;;;;;;6.90;2.67;;;-2.00;99.90;;;;;;5030648;28;20252;-85
2023/02/04 06:22:50;;;;;;;9.80;6.43;;;-1.40;99.90;;;;;;5013160;28;20570;-83
2023/02/04 06:25:17;;;;;;;5.53;3.07;;;-2.10;99.90;;;;;;4988279;28;20295;-84
2023/02/04 06:27:42;;;;;;;6.93;3.30;;;-1.00;99.90;;;;;;5010924;28;20256;-85
2023/02/04 06:30:10;;;;;;;20.53;6.90;;;-2.10;99.90;;;;;;5011828;28;20191;-84
2023/02/04 06:32:36;;;;;;;4.10;2.77;;;;;;;;;;5026891;28;20245;-85
2023/02/04 06:35:01;;;;;;;8.13;4.20;;;-2.10;99.90;;;;;;5025190;28;20188;-83
2023/02/04 06:37:27;;;;;;;28.00;10.67;;;-2.00;99.90;;;;;;5025968;28;20194;-84
2023/02/04 06:39:53;;;;;;;10.30;5.53;;;-1.70;99.90;;;;;;4996578;28;20200;-83
2023/02/04 06:42:19;;;;;;;9.87;3.33;;;-1.90;99.90;;;;;;5029302;28;20200;-84
2023/02/04 06:44:45;;;;;;;3.43;3.13;;;-1.00;99.90;;;;;;5003939;28;20303;-85
2023/02/04 06:47:11;;;;;;;3.97;3.30;;;-2.10;99.90;;;;;;4977695;28;20619;-83
2023/02/04 06:49:37;;;;;;;13.23;4.23;;;-2.00;99.90;;;;;;4999188;28;20190;-83
2023/02/04 06:52:03;;;;;;;11.87;3.50;;;-1.10;99.90;;;;;;5023335;28;20228;-83
2023/02/04 06:54:28;;;;;;;5.13;2.97;;;-1.90;99.90;;;;;;5008581;28;20302;-83
2023/02/04 06:56:54;;;;;;;3.70;1.77;;;-1.80;99.90;;;;;;5011819;28;20199;-82
2023/02/04 06:59:19;;;;;;;4.27;2.57;;;-1.80;99.90;;;;;;5018793;28;20589;-83
2023/02/04 07:01:45;;;;;;;3.43;3.13;;;-1.40;99.90;;;;;;5025711;28;20207;-82
2023/02/04 07:04:11;;;;;;;3.20;2.53;;;-1.80;99.90;;;;;;5016147;28;20244;-83
2023/02/04 07:06:36;;;;;;;8.63;4.00;;;-1.80;99.90;;;;;;5033993;28;20182;-83
2023/02/04 07:09:02;;;;;;;3.40;2.83;;;-1.80;99.90;;;;;;5009164;28;20223;-83
2023/02/04 07:11:28;;;;;;;3.97;2.90;;;-1.70;99.90;;;;;;5024487;28;20185;-82
2023/02/04 07:13:53;;;;;;;4.33;3.33;;;-1.70;99.90;;;;;;5026639;28;20200;-83
2023/02/04 07:16:19;;;;;;;2.20;1.83;;;-1.80;99.90;;;;;;5002196;28;20197;-83
2023/02/04 07:18:45;;;;;;;6.13;3.03;;;-1.40;99.90;;;;;;5008469;28;20307;-82
2023/02/04 07:21:12;;;;;;;7.17;2.87;;;-1.80;99.90;;;;;;4964463;28;20242;-83
2023/02/04 07:23:37;;;;;;;5.60;3.93;;;-1.80;99.90;;;;;;4947616;28;20201;-83
2023/02/04 07:26:03;;;;;;;9.43;5.63;;;-1.80;99.90;;;;;;4991312;28;20216;-84
2023/02/04 07:28:30;;;;;;;22.23;6.27;;;-1.80;99.90;;;;;;4994218;28;20553;-83
2023/02/04 07:30:56;;;;;;;5.10;3.20;;;-1.70;99.90;;;;;;5000974;28;20181;-85
2023/02/04 07:33:21;;;;;;;10.17;3.50;;;-1.70;99.90;;;;;;5001185;28;20246;-85
2023/02/04 07:35:47;;;;;;;1.97;1.87;;;-1.00;99.90;;;;;;5009402;28;20231;-84
2023/02/04 07:38:12;;;;;;;4.57;2.70;;;-1.80;99.90;;;;;;5006753;28;20209;-84
2023/02/04 07:40:38;;;;;;;3.30;2.13;;;-1.40;99.90;;;;;;4979167;28;20201;-84
2023/02/04 07:43:04;;;;;;;3.50;2.80;;;-1.20;99.90;;;;;;5008076;28;20280;-86
2023/02/04 07:45:29;;;;;;;7.30;4.33;;;-1.50;99.90;;;;;;4988842;28;20200;-85
2023/02/04 07:47:55;;;;;;;9.37;3.67;;;-1.20;99.90;;;;;;4993888;28;20271;-84
2023/02/04 07:50:21;;;;;;;6.70;4.30;;;-1.50;99.90;;;;;;4998166;28;20523;-85
2023/02/04 07:52:46;;;;;;;2.67;2.17;;;-1.30;99.90;;;;;;5001904;28;20430;-85
2023/02/04 07:55:12;;;;;;;2.00;1.90;;;-1.40;99.90;;;;;;4994064;28;20525;-85
2023/02/04 07:57:38;;;;;;;5.37;2.77;;;-1.40;99.90;;;;;;4994700;28;20669;-85
2023/02/04 08:00:04;;;;;;;1.70;1.53;;;-1.40;99.90;;;;;;4991572;28;20185;-86
2023/02/04 08:02:30;;;;;;;2.83;2.10;;;-1.40;99.90;;;;;;4977116;28;20207;-82
2023/02/04 08:04:55;;;;;;;3.23;2.17;;;-1.30;99.90;;;;;;4991151;28;20182;-82
2023/02/04 08:07:21;;;;;;;2.97;2.27;;;-1.60;99.90;;;;;;4990771;28;20198;-82
2023/02/04 08:09:47;;;;;;;1.80;1.70;;;;;;;;;;4975119;28;20190;-83
2023/02/04 08:12:13;;;;;;;2.93;2.13;;;-1.30;99.90;;;;;;4993256;28;20672;-86
2023/02/04 08:14:38;;;;;;;2.03;1.60;;;-1.20;99.90;;;;;;4976343;28;20213;-83
2023/02/04 08:17:04;;;;;;;2.30;1.93;;;-1.20;99.90;;;;;;4994107;28;20190;-83
2023/02/04 08:19:29;;;;;;;1.97;1.80;;;1.30;99.90;;;;;;4996080;28;20741;-84
2023/02/04 08:21:55;;;;;;;3.20;1.97;;;-0.80;99.90;;;;;;5043064;28;20191;-84
2023/02/04 08:24:21;;;;;;;3.50;1.73;;;-1.20;99.90;;;;;;5012417;28;20556;-86
2023/02/04 08:26:46;;;;;;;2.03;1.77;;;-1.20;99.90;;;;;;5020698;28;20184;-85
2023/02/04 08:29:12;;;;;;;2.67;2.47;;;-1.10;99.90;;;;;;5022102;28;20193;-84
2023/02/04 08:31:38;;;;;;;2.27;2.07;;;-1.00;99.90;;;;;;5042029;28;20189;-84
2023/02/04 08:34:05;;;;;;;1.90;1.80;;;-1.00;99.90;;;;;;5020469;28;20248;-83
2023/02/04 08:36:31;;;;;;;3.07;2.40;;;-0.90;99.90;;;;;;5031029;28;20491;-85
2023/02/04 08:38:56;;;;;;;2.47;2.13;;;-0.80;99.90;;;;;;5029145;28;20192;-82
2023/02/04 08:41:22;;;;;;;3.07;2.77;;;-0.80;99.90;;;;;;5032586;28;20185;-85
2023/02/04 08:43:48;;;;;;;1.93;1.83;;;-0.90;99.90;;;;;;4982542;28;20276;-83
2023/02/04 08:46:13;;;;;;;1.77;1.67;;;-0.90;99.90;;;;;;5032511;28;20192;-83
2023/02/04 08:48:39;;;;;;;1.47;1.40;;;-0.90;99.90;;;;;;5015251;28;20183;-84
2023/02/04 08:51:05;;;;;;;2.70;2.30;;;-0.80;99.90;;;;;;5015293;28;20173;-83
2023/02/04 08:53:30;;;;;;;1.33;1.23;;;-0.80;99.90;;;;;;4998511;28;20212;-83
2023/02/04 08:55:56;;;;;;;5.30;2.87;;;-0.80;99.90;;;;;;4998006;28;20195;-84
2023/02/04 08:58:21;;;;;;;5.33;3.43;;;-0.80;99.90;;;;;;5011604;28;20200;-84
2023/02/04 09:00:47;;;;;;;6.27;2.87;;;-0.80;99.90;;;;;;5033011;28;20173;-84
2023/02/04 09:03:13;;;;;;;6.53;3.60;;;-0.80;99.90;;;;;;5014080;28;20203;-84
2023/02/04 09:05:38;;;;;;;6.57;3.30;;;-0.70;99.90;;;;;;4998402;28;20190;-84
2023/02/04 09:08:04;;;;;;;3.10;2.80;;;-0.60;99.90;;;;;;5032909;28;20526;-83
2023/02/04 09:10:30;;;;;;;4.23;2.20;;;-0.70;99.90;;;;;;5015691;28;20181;-82
2023/02/04 09:12:56;;;;;;;5.47;3.10;;;-0.70;99.90;;;;;;5015681;28;20216;-85
2023/02/04 09:15:25;;;;;;;5.33;3.03;;;-0.70;99.90;;;;;;5032127;28;20657;-82
2023/02/04 09:18:03;;;;;;;6.47;4.30;;;-0.70;99.90;;;;;;5033262;28;20183;-82
2023/02/04 09:20:29;;;;;;;4.20;3.80;;;;;;;;;;5001305;28;20691;-82
2023/02/04 09:22:54;;;;;;;15.30;3.23;;;-0.80;99.90;;;;;;5014923;28;20234;-84
2023/02/04 09:25:20;;;;;;;3.67;2.60;;;-0.80;99.90;;;;;;5015514;28;20184;-83
2023/02/04 09:27:46;;;;;;;5.17;2.07;;;-0.70;99.90;;;;;;5036277;28;20196;-82
2023/02/04 09:30:12;;;;;;;6.37;4.40;;;-0.70;99.90;;;;;;5034671;28;20203;-83
2023/02/04 09:32:37;;;;;;;3.77;2.77;;;-0.80;99.90;;;;;;5015787;28;20607;-82
2023/02/04 09:35:03;;;;;;;8.83;3.63;;;-0.80;99.90;;;;;;5017872;28;20275;-83
2023/02/04 09:37:29;;;;;;;16.87;4.27;;;-0.80;99.90;;;;;;5034158;28;20205;-82
2023/02/04 09:39:55;;;;;;;4.67;3.07;;;-0.70;99.90;;;;;;5016314;28;20180;-82
2023/02/04 09:42:24;;;;;;;5.50;3.10;;;-1.10;99.90;;;;;;5018531;28;20210;-83
2023/02/04 09:44:50;;;;;;;8.70;4.43;;;-1.10;99.90;;;;;;5035183;28;20179;-83
2023/02/04 09:47:20;;;;;;;7.23;4.43;;;-1.00;99.90;;;;;;5035188;28;20221;-86
2023/02/04 09:49:46;;;;;;;5.47;2.93;;;-1.00;99.90;;;;;;5035537;28;20182;-82
2023/02/04 09:52:14;;;;;;;7.83;3.43;;;-1.10;99.90;;;;;;5018360;28;20173;-82
2023/02/04 09:54:40;;;;;;;4.80;3.60;;;-1.10;99.90;;;;;;5013791;28;20201;-84
2023/02/04 09:57:17;;;;;;;3.23;1.90;;;-1.20;99.90;;;;;;5035139;28;20188;-83
2023/02/04 09:59:44;;;;;;;2.00;1.87;;;-0.60;99.90;;;;;;5034951;28;20233;-83
2023/02/04 10:02:28;;;;;;;2.17;1.97;;;-0.80;99.90;;;;;;5017836;28;20530;-83
2023/02/04 10:04:56;;;;;;;5.77;2.27;;;-1.50;99.90;;;;;;5001135;28;20205;-83
2023/02/04 10:07:25;;;;;;;3.77;2.43;;;-1.00;99.90;;;;;;5016874;28;20177;-82
2023/02/04 10:09:53;;;;;;;5.63;3.03;;;-1.40;99.90;;;;;;5036343;28;20238;-82
2023/02/04 10:12:19;;;;;;;10.90;4.43;;;-1.30;99.90;;;;;;5034484;28;20204;-87
2023/02/04 10:14:45;;;;;;;7.63;4.00;;;-1.20;99.90;;;;;;5017577;28;20675;-83
2023/02/04 10:17:16;;;;;;;6.83;3.70;;;-1.20;99.90;;;;;;5001225;28;20316;-85
2023/02/04 10:19:42;;;;;;;4.67;2.53;;;-0.60;99.90;;;;;;5033783;28;20311;-83
2023/02/04 10:22:19;;;;;;;5.47;3.40;;;-0.80;99.90;;;;;;5022793;28;20263;-83
2023/02/04 10:24:46;;;;;;;6.10;2.90;;;-1.00;99.90;;;;;;5041708;28;20191;-83
2023/02/04 10:27:14;;;;;;;6.90;4.17;;;-0.80;99.90;;;;;;5042831;28;20242;-83
2023/02/04 10:29:41;;;;;;;5.50;3.73;;;-0.80;99.90;;;;;;5035714;28;20222;-85
2023/02/04 10:32:30;;;;;;;5.43;3.40;;;-0.80;99.90;;;;;;5027228;28;20208;-84
2023/02/04 10:34:59;;;;;;;8.27;3.37;;;-0.80;99.90;;;;;;5044838;28;20245;-82
2023/02/04 10:37:24;;;;;;;2.37;2.17;;;-0.60;99.90;;;;;;5035462;28;20232;-84
2023/02/04 10:39:50;;;;;;;7.93;3.27;;;-0.60;99.90;;;;;;5024591;28;20188;-84
2023/02/04 10:42:25;;;;;;;6.80;3.10;;;-0.70;99.90;;;;;;5004792;28;20189;-84
2023/02/04 10:44:51;;;;;;;4.37;2.70;;;-0.60;99.90;;;;;;5027150;28;20267;-83
2023/02/04 10:47:23;;;;;;;7.37;3.67;;;-0.50;99.90;;;;;;5031399;28;20189;-83
2023/02/04 10:50:03;;;;;;;2.27;1.83;;;-0.50;99.90;;;;;;5033660;28;20286;-84
2023/02/04 10:52:38;;;;;;;5.63;3.27;;;-0.50;99.90;;;;;;5033196;28;20181;-84
2023/02/04 10:55:06;;;;;;;1.80;1.70;;;0.00;99.90;;;;;;5010151;28;20188;-83
2023/02/04 10:57:37;;;;;;;1.90;1.80;;;-0.10;99.90;;;;;;5027166;28;20184;-83
2023/02/04 11:00:05;;;;;;;1.80;1.70;;;0.00;99.90;;;;;;5030982;28;20187;-80
2023/02/04 11:02:52;;;;;;;4.00;2.50;;;-0.10;99.90;;;;;;5006630;28;20225;-83
2023/02/04 11:05:24;;;;;;;5.03;1.50;;;0.10;99.90;;;;;;5027117;28;20660;-81
2023/02/04 11:07:50;;;;;;;3.57;1.90;;;0.50;99.90;;;;;;5007053;28;20590;-83
2023/02/04 11:10:17;;;;;;;4.77;1.93;;;0.80;99.90;;;;;;4995171;28;20291;-82
2023/02/04 11:12:57;;;;;;;2.73;1.87;;;1.10;99.90;;;;;;5015111;28;20522;-82
2023/02/04 11:15:41;;;;;;;4.17;1.97;;;1.40;99.90;;;;;;5012942;28;20284;-81
2023/02/04 11:18:19;;;;;;;10.07;3.07;;;1.40;99.90;;;;;;5014777;28;20171;-82
2023/02/04 11:20:46;;;;;;;2.83;1.43;;;0.60;98.30;;;;;;5013680;28;20278;-82
2023/02/04 11:23:14;;;;;;;2.40;1.90;;;0.20;99.90;;;;;;5014836;28;20197;-82
2023/02/04 11:25:40;;;;;;;2.00;1.90;;;0.10;99.90;;;;;;4996305;28;20198;-82
2023/02/04 11:28:24;;;;;;;5.47;2.67;;;0.20;99.90;;;;;;4996417;28;20186;-84
2023/02/04 11:31:01;;;;;;;5.90;2.73;;;0.30;99.90;;;;;;4995621;28;20585;-84
2023/02/04 11:33:37;;;;;;;2.63;1.97;;;-0.10;99.90;;;;;;5031896;28;20199;-84
2023/02/04 11:36:05;;;;;;;3.03;2.40;;;-0.20;99.90;;;;;;5033296;28;20196;-83
2023/02/04 11:38:32;;;;;;;5.83;2.30;;;-0.30;99.90;;;;;;5015648;28;20184;-83
2023/02/04 11:40:59;;;;;;;3.70;1.83;;;-0.60;99.90;;;;;;5028764;28;20185;-83
2023/02/04 11:43:25;;;;;;;6.57;2.67;;;-0.90;99.90;;;;;;5033512;28;20242;-84
2023/02/04 11:46:15;;;;;;;4.03;1.70;;;-0.80;99.90;;;;;;4999010;28;20653;-83
2023/02/04 11:48:41;;;;;;;3.07;1.50;;;-0.60;99.90;;;;;;5033298;28;20621;-84
2023/02/04 11:51:19;;;;;;;3.47;1.37;;;-0.10;99.90;;;;;;5034171;28;20216;-82
2023/02/04 11:53:50;;;;;;;6.63;2.90;;;0.00;99.90;;;;;;5032812;28;20279;-82
2023/02/04 11:56:20;;;;;;;2.43;1.77;;;-0.20;99.90;;;;;;5036158;28;20199;-82
2023/02/04 11:58:47;;;;;;;6.17;2.93;;;-0.40;99.90;;;;;;5017525;28;20215;-83
2023/02/04 12:01:17;;;;;;;4.37;2.47;;;-0.50;99.90;;;;;;5015141;28;20210;-83
2023/02/04 12:03:48;;;;;;;6.57;2.70;;;-0.50;99.90;;;;;;5032342;28;20199;-83
2023/02/04 12:06:28;;;;;;;5.43;2.53;;;-0.60;99.90;;;;;;5004044;28;20216;-82
2023/02/04 12:09:14;;;;;;;1.50;1.40;;;-0.60;99.90;;;;;;5036761;28;20636;-84
2023/02/04 12:11:55;;;;;;;12.67;2.10;;;-0.60;99.90;;;;;;5043734;28;20716;-85
2023/02/04 12:14:21;;;;;;;9.20;3.73;;;-0.60;99.90;;;;;;5031902;28;20291;-85
2023/02/04 12:16:50;;;;;;;1.73;1.53;;;-0.60;99.90;;;;;;5033415;28;20219;-83
2023/02/04 12:19:16;;;;;;;6.17;1.67;;;-0.70;99.90;;;;;;5036313;28;20249;-84
2023/02/04 12:21:42;;;;;;;3.50;2.50;;;-0.70;99.90;;;;;;5003875;28;20235;-83
2023/02/04 12:24:08;;;;;;;1.37;1.37;;;-0.60;99.90;;;;;;5037959;28;20247;-84
2023/02/04 12:26:33;;;;;;;4.43;2.30;;;-0.60;99.10;;;;;;5022318;28;20179;-83
2023/02/04 12:29:02;;;;;;;2.83;1.77;;;-0.40;99.90;;;;;;5039175;28;20195;-84
2023/02/04 12:31:28;;;;;;;2.23;1.67;;;-0.40;99.90;;;;;;5032216;28;20638;-82
2023/02/04 12:33:54;;;;;;;6.67;3.23;;;-0.40;99.90;;;;;;5013153;28;20223;-83
2023/02/04 12:36:20;;;;;;;4.50;2.83;;;-0.30;99.90;;;;;;5017738;28;20569;-83
2023/02/04 12:38:45;;;;;;;4.40;2.13;;;-0.20;99.90;;;;;;5041319;28;20184;-84
2023/02/04 12:41:11;;;;;;;7.90;3.23;;;-0.30;97.70;;;;;;5042199;28;20546;-83
2023/02/04 12:43:37;;;;;;;4.03;2.30;;;-0.50;97.70;;;;;;5021900;28;20341;-84
2023/02/04 12:46:03;;;;;;;2.80;2.00;;;-0.20;99.90;;;;;;5019261;28;20197;-84
2023/02/04 12:48:28;;;;;;;4.57;2.37;;;-0.50;99.90;;;;;;5020426;28;20195;-84